createdAt,value
2023-08-11T00:00:15.490Z,1026.87
2023-08-11T00:00:46.405Z,1026.87
2023-08-11T00:01:17.364Z,1026.88
2023-08-11T00:01:48.266Z,1026.88
2023-08-11T00:02:17.891Z,1026.89
2023-08-11T00:02:48.498Z,1026.90
2023-08-11T00:03:19.986Z,1026.90
2023-08-11T00:03:50.956Z,1026.90
2023-08-11T00:04:21.414Z,1026.90
2023-08-11T00:04:52.335Z,1026.90
2023-08-11T00:05:23.299Z,1026.90
2023-08-11T00:05:54.205Z,1026.90
2023-08-11T00:06:23.816Z,1026.90
2023-08-11T00:06:54.440Z,1026.90
2023-08-11T00:07:26.398Z,1026.89
2023-08-11T00:07:57.312Z,1026.89
2023-08-11T00:08:28.243Z,1026.89
2023-08-11T00:08:57.842Z,1026.88
2023-08-11T00:09:28.362Z,1026.88
2023-08-11T00:09:59.071Z,1026.88
2023-08-11T00:10:31.001Z,1026.87
2023-08-11T00:11:01.912Z,1026.87
2023-08-11T00:11:32.714Z,1026.87
2023-08-11T00:12:03.660Z,1026.87
2023-08-11T00:12:34.614Z,1026.86
2023-08-11T00:13:05.523Z,1026.86
2023-08-11T00:13:35.155Z,1026.86
2023-08-11T00:14:07.079Z,1026.86
2023-08-11T00:14:37.994Z,1026.86
2023-08-11T00:15:08.799Z,1026.86
2023-08-11T00:15:39.714Z,1026.86
2023-08-11T00:16:10.671Z,1026.86
2023-08-11T00:16:41.573Z,1026.86
2023-08-11T00:17:12.476Z,1026.85
2023-08-11T00:17:43.453Z,1026.85
2023-08-11T00:18:13.084Z,1026.85
2023-08-11T00:18:43.687Z,1026.85
2023-08-11T00:19:15.645Z,1026.85
2023-08-11T00:19:46.525Z,1026.85
2023-08-11T00:20:17.419Z,1026.84
2023-08-11T00:20:47.106Z,1026.84
2023-08-11T00:21:17.739Z,1026.85
2023-08-11T00:21:48.367Z,1026.84
2023-08-11T00:22:20.287Z,1026.83
2023-08-11T00:22:51.186Z,1026.83
2023-08-11T00:23:22.100Z,1026.82
2023-08-11T00:23:52.989Z,1026.82
2023-08-11T00:24:23.927Z,1026.82
2023-08-11T00:24:54.728Z,1026.82
2023-08-11T00:25:24.331Z,1026.82
2023-08-11T00:25:54.858Z,1026.82
2023-08-11T00:26:26.782Z,1026.83
2023-08-11T00:26:56.283Z,1026.84
2023-08-11T00:27:28.212Z,1026.84
2023-08-11T00:27:59.162Z,1026.85
2023-08-11T00:28:28.765Z,1026.86
2023-08-11T00:29:00.580Z,1026.86
2023-08-11T00:29:31.505Z,1026.88
2023-08-11T00:30:02.537Z,1026.89
2023-08-11T00:30:32.181Z,1026.90
2023-08-11T00:31:04.035Z,1026.92
2023-08-11T00:31:33.716Z,1026.93
2023-08-11T00:32:04.273Z,1026.94
2023-08-11T00:32:36.220Z,1026.94
2023-08-11T00:33:07.214Z,1026.94
2023-08-11T00:33:36.864Z,1026.94
2023-08-11T00:34:08.813Z,1026.94
2023-08-11T00:34:39.613Z,1026.93
2023-08-11T00:35:10.607Z,1026.93
2023-08-11T00:35:40.177Z,1026.92
2023-08-11T00:36:12.149Z,1026.92
2023-08-11T00:36:41.769Z,1026.91
2023-08-11T00:37:13.675Z,1026.90
2023-08-11T00:37:44.609Z,1026.90
2023-08-11T00:38:15.553Z,1026.90
2023-08-11T00:38:46.471Z,1026.90
2023-08-11T00:39:17.398Z,1026.90
2023-08-11T00:39:46.977Z,1026.89
2023-08-11T00:40:18.901Z,1026.89
2023-08-11T00:40:49.842Z,1026.88
2023-08-11T00:41:20.665Z,1026.89
2023-08-11T00:41:50.280Z,1026.89
2023-08-11T00:42:22.197Z,1026.89
2023-08-11T00:42:51.735Z,1026.90
2023-08-11T00:43:23.555Z,1026.90
2023-08-11T00:43:54.496Z,1026.90
2023-08-11T00:44:25.399Z,1026.91
2023-08-11T00:44:56.311Z,1026.91
2023-08-11T00:45:25.993Z,1026.91
2023-08-11T00:45:57.986Z,1026.92
2023-08-11T00:46:28.722Z,1026.92
2023-08-11T00:46:59.647Z,1026.91
2023-08-11T00:47:30.579Z,1026.91
2023-08-11T00:48:01.532Z,1026.91
2023-08-11T00:48:32.454Z,1026.91
2023-08-11T00:49:03.276Z,1026.90
2023-08-11T00:49:34.121Z,1026.90
2023-08-11T00:50:05.018Z,1026.90
2023-08-11T00:50:35.909Z,1026.90
2023-08-11T00:51:06.844Z,1026.90
2023-08-11T00:51:37.786Z,1026.90
2023-08-11T00:52:07.331Z,1026.90
2023-08-11T00:52:39.260Z,1026.90
2023-08-11T00:53:08.952Z,1026.91
2023-08-11T00:53:40.590Z,1026.91
2023-08-11T00:54:10.121Z,1026.92
2023-08-11T00:54:42.035Z,1026.92
2023-08-11T00:55:12.958Z,1026.92
2023-08-11T00:55:43.762Z,1026.92
2023-08-11T00:56:14.692Z,1026.92
2023-08-11T00:56:45.602Z,1026.92
2023-08-11T00:57:16.523Z,1026.92
2023-08-11T00:57:47.327Z,1026.92
2023-08-11T00:58:18.272Z,1026.92
2023-08-11T00:58:49.177Z,1026.93
2023-08-11T00:59:20.085Z,1026.93
2023-08-11T00:59:49.713Z,1026.92
2023-08-11T01:00:21.663Z,1026.93
2023-08-11T01:00:51.253Z,1026.93
2023-08-11T01:01:23.206Z,1026.94
2023-08-11T01:01:54.125Z,1026.94
2023-08-11T01:02:25.092Z,1026.94
2023-08-11T01:02:56.115Z,1026.95
2023-08-11T01:03:25.618Z,1026.94
2023-08-11T01:03:57.035Z,1026.94
2023-08-11T01:04:27.860Z,1026.94
2023-08-11T01:04:58.774Z,1026.94
2023-08-11T01:05:31.936Z,1026.94
2023-08-11T01:05:59.526Z,1026.93
2023-08-11T01:06:30.151Z,1026.93
2023-08-11T01:07:02.110Z,1026.93
2023-08-11T01:07:33.020Z,1026.93
2023-08-11T01:08:03.822Z,1026.94
2023-08-11T01:08:34.740Z,1026.94
2023-08-11T01:09:04.241Z,1026.94
2023-08-11T01:09:37.292Z,1026.94
2023-08-11T01:10:05.801Z,1026.94
2023-08-11T01:10:37.731Z,1026.94
2023-08-11T01:11:08.681Z,1026.94
2023-08-11T01:11:39.607Z,1026.94
2023-08-11T01:12:10.542Z,1026.94
2023-08-11T01:12:41.471Z,1026.93
2023-08-11T01:13:12.380Z,1026.92
2023-08-11T01:13:43.277Z,1026.92
2023-08-11T01:14:12.883Z,1026.91
2023-08-11T01:14:44.692Z,1026.89
2023-08-11T01:15:14.231Z,1026.89
2023-08-11T01:15:46.187Z,1026.87
2023-08-11T01:16:19.307Z,1026.86
2023-08-11T01:16:47.944Z,1026.85
2023-08-11T01:17:18.866Z,1026.84
2023-08-11T01:17:49.824Z,1026.84
2023-08-11T01:18:20.749Z,1026.83
2023-08-11T01:18:51.674Z,1026.83
2023-08-11T01:19:22.590Z,1026.83
2023-08-11T01:19:52.193Z,1026.83
2023-08-11T01:20:23.810Z,1026.83
2023-08-11T01:20:54.728Z,1026.84
2023-08-11T01:21:25.631Z,1026.85
2023-08-11T01:21:56.581Z,1026.86
2023-08-11T01:22:27.504Z,1026.86
2023-08-11T01:22:58.289Z,1026.86
2023-08-11T01:23:29.122Z,1026.86
2023-08-11T01:24:00.026Z,1026.86
2023-08-11T01:24:29.640Z,1026.87
2023-08-11T01:25:00.205Z,1026.87
2023-08-11T01:25:32.116Z,1026.87
2023-08-11T01:26:02.902Z,1026.88
2023-08-11T01:26:33.834Z,1026.89
2023-08-11T01:27:04.681Z,1026.90
2023-08-11T01:27:35.589Z,1026.91
2023-08-11T01:28:06.523Z,1026.92
2023-08-11T01:28:36.146Z,1026.93
2023-08-11T01:29:08.057Z,1026.94
2023-08-11T01:29:37.566Z,1026.95
2023-08-11T01:30:09.544Z,1026.96
2023-08-11T01:30:40.483Z,1026.96
2023-08-11T01:31:11.537Z,1026.96
2023-08-11T01:31:42.255Z,1026.96
2023-08-11T01:32:13.199Z,1026.96
2023-08-11T01:32:44.164Z,1026.96
2023-08-11T01:33:15.087Z,1026.96
2023-08-11T01:33:44.775Z,1026.96
2023-08-11T01:34:15.307Z,1026.97
2023-08-11T01:34:47.257Z,1026.97
2023-08-11T01:35:33.644Z,1026.97
2023-08-11T01:35:48.889Z,1026.98
2023-08-11T01:36:18.405Z,1026.98
2023-08-11T01:36:50.340Z,1026.98
2023-08-11T01:37:20.240Z,1026.98
2023-08-11T01:37:52.172Z,1026.98
2023-08-11T01:38:23.105Z,1026.99
2023-08-11T01:38:52.720Z,1026.99
2023-08-11T01:39:24.633Z,1027.00
2023-08-11T01:39:54.180Z,1027.00
2023-08-11T01:40:26.113Z,1027.00
2023-08-11T01:40:57.024Z,1027.00
2023-08-11T01:41:26.525Z,1027.00
2023-08-11T01:41:58.348Z,1027.00
2023-08-11T01:42:29.517Z,1027.00
2023-08-11T01:43:00.159Z,1027.00
2023-08-11T01:43:31.092Z,1026.99
2023-08-11T01:44:02.052Z,1026.99
2023-08-11T01:44:32.953Z,1026.99
2023-08-11T01:45:02.465Z,1026.99
2023-08-11T01:45:34.495Z,1027.00
2023-08-11T01:46:04.938Z,1027.00
2023-08-11T01:46:35.878Z,1027.01
2023-08-11T01:47:05.728Z,1027.01
2023-08-11T01:47:37.039Z,1027.02
2023-08-11T01:48:08.009Z,1027.02
2023-08-11T01:48:39.000Z,1027.02
2023-08-11T01:49:09.969Z,1027.02
2023-08-11T01:49:40.885Z,1027.02
2023-08-11T01:50:11.706Z,1027.03
2023-08-11T01:50:42.601Z,1027.03
2023-08-11T01:51:13.509Z,1027.02
2023-08-11T01:51:44.432Z,1027.01
2023-08-11T01:52:13.963Z,1027.01
2023-08-11T01:52:45.895Z,1027.01
2023-08-11T01:53:16.862Z,1027.00
2023-08-11T01:53:47.760Z,1027.00
2023-08-11T01:54:18.692Z,1027.00
2023-08-11T01:54:49.612Z,1026.99
2023-08-11T01:55:20.533Z,1026.99
2023-08-11T01:55:51.347Z,1026.99
2023-08-11T01:56:22.252Z,1026.98
2023-08-11T01:56:53.188Z,1026.99
2023-08-11T01:57:23.991Z,1026.99
2023-08-11T01:57:59.105Z,1026.99
2023-08-11T01:58:25.606Z,1027.00
2023-08-11T01:58:55.610Z,1027.00
2023-08-11T01:59:27.564Z,1027.01
2023-08-11T01:59:58.504Z,1027.01
2023-08-11T02:00:29.705Z,1027.01
2023-08-11T02:00:59.821Z,1027.01
2023-08-11T02:01:30.764Z,1027.01
2023-08-11T02:02:00.490Z,1027.01
2023-08-11T02:02:31.110Z,1027.01
2023-08-11T02:03:02.599Z,1027.00
2023-08-11T02:03:33.667Z,1026.99
2023-08-11T02:04:04.180Z,1026.99
2023-08-11T02:04:33.759Z,1026.98
2023-08-11T02:05:05.660Z,1026.97
2023-08-11T02:05:36.584Z,1026.97
2023-08-11T02:06:06.196Z,1026.97
2023-08-11T02:06:38.156Z,1026.97
2023-08-11T02:07:09.299Z,1026.97
2023-08-11T02:07:39.842Z,1026.97
2023-08-11T02:08:10.699Z,1026.97
2023-08-11T02:08:41.534Z,1026.97
2023-08-11T02:09:12.462Z,1026.97
2023-08-11T02:09:42.073Z,1026.97
2023-08-11T02:10:12.594Z,1026.98
2023-08-11T02:10:44.500Z,1026.98
2023-08-11T02:11:14.089Z,1026.98
2023-08-11T02:11:46.004Z,1026.98
2023-08-11T02:12:16.922Z,1026.98
2023-08-11T02:12:47.831Z,1026.98
2023-08-11T02:13:18.794Z,1026.98
2023-08-11T02:13:49.700Z,1026.97
2023-08-11T02:14:19.307Z,1026.97
2023-08-11T02:14:51.212Z,1026.96
2023-08-11T02:15:20.753Z,1026.96
2023-08-11T02:15:52.744Z,1026.95
2023-08-11T02:16:23.714Z,1026.95
2023-08-11T02:16:53.249Z,1026.95
2023-08-11T02:17:25.196Z,1026.95
2023-08-11T02:17:56.165Z,1026.95
2023-08-11T02:18:27.076Z,1026.95
2023-08-11T02:18:57.972Z,1026.95
2023-08-11T02:19:28.897Z,1026.95
2023-08-11T02:19:58.402Z,1026.95
2023-08-11T02:20:30.338Z,1026.95
2023-08-11T02:21:01.250Z,1026.95
2023-08-11T02:21:32.187Z,1026.96
2023-08-11T02:22:03.120Z,1026.96
2023-08-11T02:22:34.032Z,1026.97
2023-08-11T02:23:04.953Z,1026.98
2023-08-11T02:23:35.860Z,1027.00
2023-08-11T02:24:06.804Z,1027.01
2023-08-11T02:24:36.323Z,1027.02
2023-08-11T02:25:08.240Z,1027.03
2023-08-11T02:25:39.189Z,1027.04
2023-08-11T02:26:10.124Z,1027.04
2023-08-11T02:26:39.773Z,1027.06
2023-08-11T02:27:11.705Z,1027.06
2023-08-11T02:27:42.626Z,1027.06
2023-08-11T02:28:13.539Z,1027.06
2023-08-11T02:28:44.455Z,1027.06
2023-08-11T02:29:15.389Z,1027.07
2023-08-11T02:29:46.304Z,1027.06
2023-08-11T02:30:17.231Z,1027.06
2023-08-11T02:30:48.172Z,1027.05
2023-08-11T02:31:19.018Z,1027.05
2023-08-11T02:31:49.995Z,1027.05
2023-08-11T02:32:19.552Z,1027.06
2023-08-11T02:32:51.646Z,1027.06
2023-08-11T02:33:20.974Z,1027.07
2023-08-11T02:33:51.509Z,1027.07
2023-08-11T02:34:23.426Z,1027.07
2023-08-11T02:34:53.015Z,1027.08
2023-08-11T02:35:24.925Z,1027.09
2023-08-11T02:35:55.853Z,1027.10
2023-08-11T02:36:25.453Z,1027.10
2023-08-11T02:36:55.976Z,1027.10
2023-08-11T02:37:26.592Z,1027.10
2023-08-11T02:37:58.542Z,1027.10
2023-08-11T02:38:28.164Z,1027.10
2023-08-11T02:39:00.055Z,1027.10
2023-08-11T02:39:30.999Z,1027.10
2023-08-11T02:40:01.936Z,1027.10
2023-08-11T02:40:32.887Z,1027.10
2023-08-11T02:41:04.840Z,1027.10
2023-08-11T02:41:34.533Z,1027.09
2023-08-11T02:42:05.968Z,1027.09
2023-08-11T02:42:36.119Z,1027.09
2023-08-11T02:43:07.045Z,1027.08
2023-08-11T02:43:38.082Z,1027.08
2023-08-11T02:44:08.773Z,1027.08
2023-08-11T02:44:39.587Z,1027.07
2023-08-11T02:45:10.711Z,1027.06
2023-08-11T02:45:41.188Z,1027.06
2023-08-11T02:46:12.185Z,1027.05
2023-08-11T02:46:42.640Z,1027.04
2023-08-11T02:47:13.562Z,1027.03
2023-08-11T02:47:43.244Z,1027.02
2023-08-11T02:48:14.812Z,1027.02
2023-08-11T02:48:45.741Z,1027.01
2023-08-11T02:49:16.657Z,1027.00
2023-08-11T02:49:47.591Z,1026.99
2023-08-11T02:50:18.559Z,1026.99
2023-08-11T02:50:49.329Z,1026.99
2023-08-11T02:51:20.132Z,1026.99
2023-08-11T02:51:51.080Z,1026.98
2023-08-11T02:52:21.878Z,1026.98
2023-08-11T02:52:52.818Z,1026.98
2023-08-11T02:53:23.653Z,1026.98
2023-08-11T02:53:53.006Z,1026.97
2023-08-11T02:54:24.935Z,1026.97
2023-08-11T02:54:55.848Z,1026.97
2023-08-11T02:55:26.638Z,1026.97
2023-08-11T02:55:57.586Z,1026.96
2023-08-11T02:56:28.503Z,1026.96
2023-08-11T02:56:59.468Z,1026.96
2023-08-11T02:57:30.384Z,1026.95
2023-08-11T02:58:01.312Z,1026.95
2023-08-11T02:58:32.284Z,1026.94
2023-08-11T02:59:03.207Z,1026.94
2023-08-11T02:59:34.125Z,1026.93
2023-08-11T03:00:05.064Z,1026.93
2023-08-11T03:00:34.690Z,1026.93
2023-08-11T03:01:06.642Z,1026.93
2023-08-11T03:01:36.281Z,1026.92
2023-08-11T03:02:07.227Z,1026.92
2023-08-11T03:02:38.938Z,1026.92
2023-08-11T03:03:08.778Z,1026.92
2023-08-11T03:03:40.297Z,1026.92
2023-08-11T03:04:11.211Z,1026.92
2023-08-11T03:04:42.114Z,1026.92
2023-08-11T03:05:13.175Z,1026.93
2023-08-11T03:05:43.599Z,1026.93
2023-08-11T03:06:14.514Z,1026.94
2023-08-11T03:06:45.441Z,1026.95
2023-08-11T03:07:16.366Z,1026.95
2023-08-11T03:07:47.295Z,1026.96
2023-08-11T03:08:16.909Z,1026.96
2023-08-11T03:08:47.459Z,1026.96
2023-08-11T03:09:19.373Z,1026.96
2023-08-11T03:09:50.284Z,1026.95
2023-08-11T03:10:19.923Z,1026.95
2023-08-11T03:10:57.035Z,1026.95
2023-08-11T03:11:22.636Z,1026.94
2023-08-11T03:11:52.240Z,1026.94
2023-08-11T03:12:22.855Z,1026.95
2023-08-11T03:12:54.777Z,1026.95
2023-08-11T03:13:25.688Z,1026.95
2023-08-11T03:13:56.600Z,1026.96
2023-08-11T03:14:26.135Z,1026.97
2023-08-11T03:14:58.052Z,1026.98
2023-08-11T03:15:27.709Z,1026.99
2023-08-11T03:15:59.640Z,1026.99
2023-08-11T03:16:30.575Z,1026.99
2023-08-11T03:17:01.465Z,1027.00
2023-08-11T03:17:31.039Z,1027.00
2023-08-11T03:18:03.020Z,1027.01
2023-08-11T03:18:32.690Z,1027.01
2023-08-11T03:19:04.620Z,1027.01
2023-08-11T03:19:35.544Z,1027.01
2023-08-11T03:20:05.162Z,1027.01
2023-08-11T03:20:35.752Z,1027.01
2023-08-11T03:21:18.672Z,1027.01
2023-08-11T03:21:38.477Z,1027.01
2023-08-11T03:22:09.431Z,1027.01
2023-08-11T03:22:39.185Z,1027.01
2023-08-11T03:23:09.891Z,1027.01
2023-08-11T03:23:41.834Z,1027.01
2023-08-11T03:24:14.643Z,1027.01
2023-08-11T03:24:43.736Z,1027.01
2023-08-11T03:25:14.655Z,1027.01
2023-08-11T03:25:45.610Z,1027.00
2023-08-11T03:26:16.514Z,1027.00
2023-08-11T03:26:47.451Z,1027.01
2023-08-11T03:27:17.075Z,1027.01
2023-08-11T03:27:49.051Z,1027.01
2023-08-11T03:28:19.985Z,1027.01
2023-08-11T03:28:50.797Z,1027.01
2023-08-11T03:29:21.759Z,1027.02
2023-08-11T03:29:51.372Z,1027.02
2023-08-11T03:30:21.993Z,1027.03
2023-08-11T03:30:53.958Z,1027.03
2023-08-11T03:31:24.862Z,1027.03
2023-08-11T03:31:55.707Z,1027.04
2023-08-11T03:32:26.660Z,1027.04
2023-08-11T03:32:56.311Z,1027.04
2023-08-11T03:33:28.305Z,1027.04
2023-08-11T03:33:59.013Z,1027.03
2023-08-11T03:34:29.831Z,1027.03
2023-08-11T03:35:00.768Z,1027.02
2023-08-11T03:35:31.681Z,1027.01
2023-08-11T03:36:01.351Z,1027.00
2023-08-11T03:36:31.918Z,1027.00
2023-08-11T03:37:03.793Z,1027.00
2023-08-11T03:37:34.661Z,1026.99
2023-08-11T03:38:05.549Z,1026.99
2023-08-11T03:38:36.370Z,1026.98
2023-08-11T03:39:07.310Z,1026.99
2023-08-11T03:39:38.238Z,1026.99
2023-08-11T03:40:07.846Z,1027.00
2023-08-11T03:40:39.731Z,1027.00
2023-08-11T03:41:09.296Z,1027.00
2023-08-11T03:41:40.258Z,1027.00
2023-08-11T03:42:14.268Z,1027.00
2023-08-11T03:42:42.892Z,1027.00
2023-08-11T03:43:13.778Z,1027.01
2023-08-11T03:43:44.682Z,1027.01
2023-08-11T03:44:15.609Z,1027.01
2023-08-11T03:44:46.489Z,1027.02
2023-08-11T03:45:17.362Z,1027.03
2023-08-11T03:45:48.247Z,1027.04
2023-08-11T03:46:19.176Z,1027.04
2023-08-11T03:46:48.795Z,1027.05
2023-08-11T03:47:20.680Z,1027.06
2023-08-11T03:47:50.291Z,1027.07
2023-08-11T03:48:22.166Z,1027.08
2023-08-11T03:48:51.739Z,1027.09
2023-08-11T03:49:23.591Z,1027.10
2023-08-11T03:49:54.467Z,1027.11
2023-08-11T03:50:25.348Z,1027.12
2023-08-11T03:50:56.217Z,1027.13
2023-08-11T03:51:27.104Z,1027.13
2023-08-11T03:52:00.074Z,1027.14
2023-08-11T03:52:28.601Z,1027.14
2023-08-11T03:52:59.446Z,1027.14
2023-08-11T03:53:30.315Z,1027.15
2023-08-11T03:54:02.183Z,1027.15
2023-08-11T03:54:43.486Z,1027.15
2023-08-11T03:55:02.511Z,1027.14
2023-08-11T03:55:33.392Z,1027.14
2023-08-11T03:56:04.267Z,1027.14
2023-08-11T03:56:35.162Z,1027.14
2023-08-11T03:57:06.022Z,1027.13
2023-08-11T03:57:36.935Z,1027.13
2023-08-11T03:58:07.789Z,1027.13
2023-08-11T03:58:38.660Z,1027.13
2023-08-11T03:59:09.521Z,1027.13
2023-08-11T03:59:40.398Z,1027.12
2023-08-11T04:00:11.259Z,1027.12
2023-08-11T04:00:42.147Z,1027.12
2023-08-11T04:01:13.101Z,1027.13
2023-08-11T04:01:42.730Z,1027.13
2023-08-11T04:02:14.648Z,1027.13
2023-08-11T04:02:44.354Z,1027.14
2023-08-11T04:03:16.127Z,1027.14
2023-08-11T04:03:46.687Z,1027.15
2023-08-11T04:04:17.551Z,1027.16
2023-08-11T04:04:48.405Z,1027.17
2023-08-11T04:05:19.274Z,1027.18
2023-08-11T04:05:52.202Z,1027.19
2023-08-11T04:06:20.029Z,1027.20
2023-08-11T04:06:51.869Z,1027.21
2023-08-11T04:07:22.733Z,1027.22
2023-08-11T04:07:53.580Z,1027.23
2023-08-11T04:08:24.419Z,1027.23
2023-08-11T04:08:53.964Z,1027.24
2023-08-11T04:09:25.839Z,1027.25
2023-08-11T04:09:57.556Z,1027.25
2023-08-11T04:10:27.119Z,1027.26
2023-08-11T04:10:57.973Z,1027.26
2023-08-11T04:11:28.837Z,1027.26
2023-08-11T04:11:59.765Z,1027.27
2023-08-11T04:12:30.618Z,1027.27
2023-08-11T04:13:01.484Z,1027.27
2023-08-11T04:13:32.350Z,1027.27
2023-08-11T04:14:03.112Z,1027.27
2023-08-11T04:14:33.887Z,1027.27
2023-08-11T04:15:04.759Z,1027.26
2023-08-11T04:15:35.644Z,1027.26
2023-08-11T04:16:06.484Z,1027.26
2023-08-11T04:16:37.349Z,1027.26
2023-08-11T04:17:08.217Z,1027.26
2023-08-11T04:17:39.124Z,1027.25
2023-08-11T04:18:08.785Z,1027.25
2023-08-11T04:18:40.647Z,1027.25
2023-08-11T04:19:11.497Z,1027.24
2023-08-11T04:19:42.378Z,1027.24
2023-08-11T04:20:13.293Z,1027.24
2023-08-11T04:20:42.840Z,1027.24
2023-08-11T04:21:14.697Z,1027.24
2023-08-11T04:21:45.533Z,1027.24
2023-08-11T04:22:22.794Z,1027.25
2023-08-11T04:22:47.156Z,1027.25
2023-08-11T04:23:18.014Z,1027.25
2023-08-11T04:23:47.558Z,1027.25
2023-08-11T04:24:19.424Z,1027.25
2023-08-11T04:24:50.271Z,1027.24
2023-08-11T04:25:20.216Z,1027.24
2023-08-11T04:25:52.142Z,1027.24
2023-08-11T04:26:22.976Z,1027.24
2023-08-11T04:26:52.923Z,1027.23
2023-08-11T04:27:24.853Z,1027.23
2023-08-11T04:27:55.688Z,1027.23
2023-08-11T04:28:26.564Z,1027.23
2023-08-11T04:28:57.403Z,1027.23
2023-08-11T04:29:28.280Z,1027.23
2023-08-11T04:29:59.177Z,1027.23
2023-08-11T04:30:28.729Z,1027.22
2023-08-11T04:30:59.327Z,1027.22
2023-08-11T04:31:31.236Z,1027.22
2023-08-11T04:32:00.736Z,1027.22
2023-08-11T04:32:32.631Z,1027.22
2023-08-11T04:33:03.664Z,1027.22
2023-08-11T04:33:34.092Z,1027.22
2023-08-11T04:34:04.933Z,1027.22
2023-08-11T04:34:35.684Z,1027.22
2023-08-11T04:35:06.530Z,1027.22
2023-08-11T04:35:37.377Z,1027.23
2023-08-11T04:36:06.940Z,1027.23
2023-08-11T04:36:38.813Z,1027.24
2023-08-11T04:37:09.670Z,1027.23
2023-08-11T04:37:40.735Z,1027.24
2023-08-11T04:38:11.101Z,1027.24
2023-08-11T04:38:40.701Z,1027.25
2023-08-11T04:39:11.286Z,1027.25
2023-08-11T04:39:43.174Z,1027.26
2023-08-11T04:40:13.927Z,1027.26
2023-08-11T04:40:43.886Z,1027.27
2023-08-11T04:41:14.450Z,1027.27
2023-08-11T04:41:45.027Z,1027.28
2023-08-11T04:42:16.891Z,1027.28
2023-08-11T04:42:47.577Z,1027.29
2023-08-11T04:43:18.325Z,1027.29
2023-08-11T04:43:49.160Z,1027.30
2023-08-11T04:44:20.015Z,1027.30
2023-08-11T04:44:50.861Z,1027.30
2023-08-11T04:45:21.730Z,1027.30
2023-08-11T04:45:52.581Z,1027.30
2023-08-11T04:46:23.468Z,1027.30
2023-08-11T04:46:54.370Z,1027.30
2023-08-11T04:47:25.132Z,1027.30
2023-08-11T04:47:56.021Z,1027.29
2023-08-11T04:48:26.857Z,1027.28
2023-08-11T04:48:57.712Z,1027.28
2023-08-11T04:49:28.454Z,1027.27
2023-08-11T04:49:59.285Z,1027.27
2023-08-11T04:50:28.836Z,1027.27
2023-08-11T04:51:00.715Z,1027.27
2023-08-11T04:51:31.550Z,1027.27
2023-08-11T04:52:02.403Z,1027.28
2023-08-11T04:52:33.154Z,1027.29
2023-08-11T04:53:04.067Z,1027.30
2023-08-11T04:53:34.955Z,1027.31
2023-08-11T04:54:04.932Z,1027.32
2023-08-11T04:54:36.792Z,1027.33
2023-08-11T04:55:07.553Z,1027.34
2023-08-11T04:55:38.467Z,1027.35
2023-08-11T04:56:09.310Z,1027.36
2023-08-11T04:56:40.162Z,1027.36
2023-08-11T04:57:11.046Z,1027.36
2023-08-11T04:57:41.905Z,1027.36
2023-08-11T04:58:11.892Z,1027.36
2023-08-11T04:58:43.749Z,1027.36
2023-08-11T04:59:14.589Z,1027.35
2023-08-11T04:59:45.486Z,1027.36
2023-08-11T05:00:16.337Z,1027.36
2023-08-11T05:00:47.220Z,1027.36
2023-08-11T05:01:18.126Z,1027.36
2023-08-11T05:01:49.004Z,1027.37
2023-08-11T05:02:18.596Z,1027.38
2023-08-11T05:02:50.522Z,1027.38
2023-08-11T05:03:21.491Z,1027.39
2023-08-11T05:03:51.227Z,1027.39
2023-08-11T05:04:22.614Z,1027.39
2023-08-11T05:04:53.353Z,1027.40
2023-08-11T05:05:24.215Z,1027.39
2023-08-11T05:05:55.115Z,1027.40
2023-08-11T05:06:25.956Z,1027.40
2023-08-11T05:06:56.706Z,1027.40
2023-08-11T05:07:27.598Z,1027.40
2023-08-11T05:07:58.434Z,1027.40
2023-08-11T05:08:28.009Z,1027.40
2023-08-11T05:08:59.860Z,1027.40
2023-08-11T05:09:30.735Z,1027.40
2023-08-11T05:10:01.616Z,1027.40
2023-08-11T05:10:32.488Z,1027.40
2023-08-11T05:11:03.367Z,1027.40
2023-08-11T05:11:32.926Z,1027.40
2023-08-11T05:12:03.489Z,1027.40
2023-08-11T05:12:35.364Z,1027.40
2023-08-11T05:13:06.245Z,1027.40
2023-08-11T05:13:35.840Z,1027.40
2023-08-11T05:14:07.740Z,1027.40
2023-08-11T05:14:38.485Z,1027.40
2023-08-11T05:15:09.350Z,1027.41
2023-08-11T05:15:40.218Z,1027.41
2023-08-11T05:16:11.083Z,1027.42
2023-08-11T05:16:40.741Z,1027.42
2023-08-11T05:17:13.013Z,1027.43
2023-08-11T05:17:42.198Z,1027.43
2023-08-11T05:18:14.077Z,1027.44
2023-08-11T05:18:44.922Z,1027.45
2023-08-11T05:19:15.779Z,1027.45
2023-08-11T05:19:45.371Z,1027.46
2023-08-11T05:20:17.236Z,1027.45
2023-08-11T05:20:46.801Z,1027.46
2023-08-11T05:21:17.770Z,1027.45
2023-08-11T05:21:49.694Z,1027.45
2023-08-11T05:22:20.533Z,1027.45
2023-08-11T05:22:51.405Z,1027.44
2023-08-11T05:23:23.928Z,1027.44
2023-08-11T05:23:52.860Z,1027.44
2023-08-11T05:24:23.746Z,1027.45
2023-08-11T05:24:54.687Z,1027.45
2023-08-11T05:25:24.226Z,1027.46
2023-08-11T05:25:56.071Z,1027.46
2023-08-11T05:26:25.631Z,1027.47
2023-08-11T05:26:57.507Z,1027.48
2023-08-11T05:27:28.406Z,1027.49
2023-08-11T05:27:59.276Z,1027.50
2023-08-11T05:28:30.153Z,1027.51
2023-08-11T05:28:59.727Z,1027.52
2023-08-11T05:29:31.578Z,1027.53
2023-08-11T05:30:02.460Z,1027.54
2023-08-11T05:30:33.204Z,1027.54
2023-08-11T05:31:04.081Z,1027.54
2023-08-11T05:31:33.659Z,1027.54
2023-08-11T05:32:04.181Z,1027.54
2023-08-11T05:32:36.121Z,1027.54
2023-08-11T05:33:07.013Z,1027.53
2023-08-11T05:33:37.903Z,1027.53
2023-08-11T05:34:08.763Z,1027.53
2023-08-11T05:34:38.305Z,1027.52
2023-08-11T05:35:08.899Z,1027.52
2023-08-11T05:35:40.769Z,1027.52
2023-08-11T05:36:11.631Z,1027.52
2023-08-11T05:36:41.231Z,1027.52
2023-08-11T05:37:12.039Z,1027.52
2023-08-11T05:37:42.779Z,1027.53
2023-08-11T05:38:13.368Z,1027.54
2023-08-11T05:38:45.229Z,1027.54
2023-08-11T05:39:16.014Z,1027.55
2023-08-11T05:39:46.856Z,1027.55
2023-08-11T05:40:16.441Z,1027.56
2023-08-11T05:40:48.328Z,1027.56
2023-08-11T05:41:19.241Z,1027.57
2023-08-11T05:41:50.113Z,1027.57
2023-08-11T05:42:20.959Z,1027.56
2023-08-11T05:42:51.798Z,1027.56
2023-08-11T05:43:21.347Z,1027.56
2023-08-11T05:43:52.336Z,1027.56
2023-08-11T05:44:24.228Z,1027.56
2023-08-11T05:44:53.708Z,1027.56
2023-08-11T05:45:25.586Z,1027.56
2023-08-11T05:45:56.481Z,1027.56
2023-08-11T05:46:26.109Z,1027.56
2023-08-11T05:46:58.036Z,1027.56
2023-08-11T05:47:28.807Z,1027.56
2023-08-11T05:47:59.720Z,1027.56
2023-08-11T05:48:30.595Z,1027.56
2023-08-11T05:49:01.352Z,1027.56
2023-08-11T05:49:32.238Z,1027.56
2023-08-11T05:50:01.788Z,1027.57
2023-08-11T05:50:32.334Z,1027.56
2023-08-11T05:51:03.132Z,1027.56
2023-08-11T05:51:34.998Z,1027.57
2023-08-11T05:52:05.764Z,1027.57
2023-08-11T05:52:36.666Z,1027.57
2023-08-11T05:53:07.502Z,1027.57
2023-08-11T05:53:38.337Z,1027.58
2023-08-11T05:54:07.903Z,1027.58
2023-08-11T05:54:38.472Z,1027.58
2023-08-11T05:55:10.346Z,1027.58
2023-08-11T05:55:41.294Z,1027.58
2023-08-11T05:56:11.722Z,1027.58
2023-08-11T05:56:41.684Z,1027.58
2023-08-11T05:57:13.540Z,1027.58
2023-08-11T05:57:44.307Z,1027.58
2023-08-11T05:58:15.233Z,1027.58
2023-08-11T05:58:45.214Z,1027.58
2023-08-11T05:59:17.081Z,1027.58
2023-08-11T05:59:47.970Z,1027.59
2023-08-11T06:00:18.812Z,1027.59
2023-08-11T06:00:50.503Z,1027.59
2023-08-11T06:01:20.428Z,1027.60
2023-08-11T06:01:51.344Z,1027.60
2023-08-11T06:02:22.276Z,1027.61
2023-08-11T06:02:52.303Z,1027.61
2023-08-11T06:03:24.199Z,1027.61
2023-08-11T06:03:53.733Z,1027.62
2023-08-11T06:04:25.654Z,1027.62
2023-08-11T06:04:56.567Z,1027.62
2023-08-11T06:05:27.441Z,1027.62
2023-08-11T06:05:56.992Z,1027.62
2023-08-11T06:06:28.758Z,1027.62
2023-08-11T06:06:59.596Z,1027.61
2023-08-11T06:07:30.442Z,1027.60
2023-08-11T06:08:06.788Z,1027.59
2023-08-11T06:08:32.091Z,1027.59
2023-08-11T06:09:01.666Z,1027.58
2023-08-11T06:09:33.552Z,1027.58
2023-08-11T06:10:04.393Z,1027.58
2023-08-11T06:10:33.956Z,1027.58
2023-08-11T06:11:04.462Z,1027.58
2023-08-11T06:11:36.315Z,1027.58
2023-08-11T06:12:07.063Z,1027.57
2023-08-11T06:12:37.932Z,1027.58